createdAt,value
2023-05-08T00:02:25.618Z,11.40
2023-05-08T00:05:15.007Z,11.30
2023-05-08T00:07:58.467Z,11.50
2023-05-08T00:10:47.168Z,14.38
2023-05-08T00:13:28.469Z,11.48
2023-05-08T00:16:34.478Z,13.15
2023-05-08T00:19:57.383Z,11.07
2023-05-08T00:22:29.736Z,12.85
2023-05-08T00:25:05.815Z,17.70
2023-05-08T00:27:54.654Z,10.73
2023-05-08T00:30:21.500Z,11.65
2023-05-08T00:35:27.750Z,11.45
2023-05-08T00:53:59.575Z,18.73
2023-05-08T00:56:30.287Z,13.68
2023-05-08T00:58:57.542Z,11.23
2023-05-08T01:01:27.213Z,12.13
2023-05-08T01:32:42.770Z,9.60
2023-05-08T01:45:32.931Z,12.05
2023-05-08T01:48:47.640Z,15.63
2023-05-08T01:52:05.051Z,13.32
2023-05-08T01:54:57.499Z,15.52
2023-05-08T02:15:20.124Z,11.43
2023-05-08T02:18:48.331Z,14.67
2023-05-08T02:21:18.810Z,10.60
2023-05-08T02:24:09.083Z,10.90
2023-05-08T02:26:55.908Z,16.70
2023-05-08T02:29:43.637Z,13.57
2023-05-08T02:35:20.969Z,19.52
2023-05-08T02:38:09.215Z,10.90
2023-05-08T02:40:54.566Z,17.45
2023-05-08T02:43:46.185Z,9.85
2023-05-08T03:37:58.606Z,11.80
2023-05-08T03:40:44.618Z,13.63
2023-05-08T03:46:01.472Z,12.80
2023-05-08T03:48:52.638Z,20.70
2023-05-08T03:51:19.446Z,13.80
2023-05-08T03:54:08.504Z,10.65
2023-05-08T03:56:35.362Z,14.75
2023-05-08T03:59:25.510Z,11.43
2023-05-08T04:02:18.551Z,16.63
2023-05-08T04:05:36.178Z,12.10
2023-05-08T04:08:30.113Z,15.88
2023-05-08T04:39:57.266Z,17.50
2023-05-08T04:42:44.128Z,23.20
2023-05-08T04:45:31.876Z,26.40
2023-05-08T05:15:19.061Z,28.08
2023-05-08T05:17:53.079Z,27.67
2023-05-08T05:20:57.787Z,27.45
2023-05-08T16:15:10.561Z,40.72
2023-05-08T16:25:41.998Z,38.67
2023-05-08T16:33:17.562Z,40.72
2023-05-08T16:35:12.042Z,38.72
2023-05-08T16:37:41.766Z,36.77
2023-05-08T16:40:37.246Z,38.25
2023-05-08T16:43:07.128Z,36.03
2023-05-08T16:45:33.934Z,32.17
2023-05-08T16:48:35.111Z,31.80
2023-05-08T16:51:33.271Z,31.37
2023-05-08T17:24:08.804Z,31.08
2023-05-08T17:32:15.229Z,34.35
2023-05-08T17:39:42.105Z,30.35
2023-05-08T17:42:09.789Z,30.48
2023-05-08T17:44:36.384Z,29.33
2023-05-08T17:47:14.159Z,26.90
2023-05-08T17:49:51.959Z,26.33
2023-05-08T17:52:18.612Z,23.92
2023-05-08T17:54:52.825Z,26.50
2023-05-08T17:57:19.571Z,22.85
2023-05-08T17:59:48.309Z,20.65
2023-05-08T18:02:17.097Z,21.90
2023-05-08T18:04:43.969Z,20.15
2023-05-08T18:07:11.849Z,21.98
2023-05-08T18:09:42.225Z,19.90
2023-05-08T18:12:11.693Z,20.95
2023-05-08T18:14:38.389Z,18.83
2023-05-08T18:17:05.339Z,19.27
2023-05-08T18:22:23.336Z,19.23
2023-05-08T18:24:50.104Z,20.00
2023-05-08T18:27:16.859Z,20.17
2023-05-08T18:29:47.280Z,19.73
2023-05-08T18:32:27.284Z,21.42
2023-05-08T18:34:53.927Z,20.60
2023-05-08T18:37:26.810Z,21.50
2023-05-08T18:39:53.563Z,21.20
2023-05-08T18:42:20.279Z,21.08
2023-05-08T18:44:55.987Z,20.95
2023-05-08T18:50:05.542Z,20.75
2023-05-08T18:52:32.193Z,22.30
2023-05-08T18:57:39.497Z,23.15
2023-05-08T19:00:12.705Z,23.33
2023-05-08T19:02:39.432Z,22.45
2023-05-08T19:05:14.523Z,22.00
2023-05-08T20:42:01.586Z,22.43
2023-05-08T21:00:33.814Z,22.63
2023-05-08T21:03:06.605Z,21.75
2023-05-08T21:15:36.406Z,22.98
2023-05-08T21:23:32.689Z,27.83
2023-05-08T22:00:10.225Z,26.15
2023-05-08T22:02:54.118Z,26.05
2023-05-08T22:16:07.341Z,29.08
